Wapakoneta, Ohio
Current Conditions -  °F | °C
As of 11:34 AM on Tuesday 21 Oct 2014 (Local Time) from KAXV Reporting Station
Light Rain Light Rain  
Wind Chill: 42°   Ceiling: 1200
Heat Index: 46°   Visibility: 7mi
Dew Point: 46°   Wind: 9mph
Humidity: 100%   Direction: 330°NNW
Pressure: 30.05"   Gusts: NA
Location:  40.57°N, 84.19°W
Report Text: KAXV 211534Z AUTO 33008KT 7SM -RA BKN012 OVC027 08/08 A3005 RMK AO2
Loading
Personal Weather Stations






























Interactive Weather Map
Tropical Storm Tracking
New forecast layout! Learn more

10-Day Weather Forecast

Advertisements
Track Severe Weather on mobile